Time;durP1;ratioP1;P1;durP2;ratioP2;P2;SDS_P1;SDS_P2;PMS_P1;PMS_P2;Temp;Humidity;BMP_temperature;BMP_pressure;BME280_temperature;BME280_humidity;BME280_pressure;Samples;Min_cycle;Max_cycle;Signal;HPM_P1;HPM_P2
2022/03/26 00:01:40;;;;;;;26.17;19.75;;;;;;;10.00;41.26;100513.66;6337289;22;20404;-89
2022/03/26 00:04:05;;;;;;;29.88;21.30;;;;;;;9.88;41.02;100549.97;6309760;22;20124;-89
2022/03/26 00:06:32;;;;;;;26.60;20.85;;;;;;;10.04;40.91;100531.66;6309982;22;20436;-89
2022/03/26 00:08:58;;;;;;;24.20;17.98;;;;;;;10.58;40.96;100603.81;6309877;22;20011;-89
2022/03/26 00:11:24;;;;;;;23.75;18.02;;;;;;;9.94;40.83;100511.63;6309901;22;20005;-89
2022/03/26 00:13:49;;;;;;;23.42;18.02;;;;;;;9.79;41.10;100496.31;6337650;22;20005;-89
2022/03/26 00:16:15;;;;;;;27.13;20.55;;;;;;;10.08;40.74;100545.38;6309612;22;19999;-87
2022/03/26 00:18:40;;;;;;;24.50;19.40;;;;;;;10.46;40.61;100626.16;6337596;22;19995;-89
2022/03/26 00:21:06;;;;;;;25.25;18.65;;;;;;;10.45;41.25;100616.56;6309926;22;20026;-90
2022/03/26 00:23:32;;;;;;;24.85;18.05;;;;;;;10.42;40.97;100627.44;6337702;22;20003;-89
2022/03/26 00:25:58;;;;;;;23.20;17.20;;;;;;;10.12;41.02;100567.88;6337224;22;20432;-89
2022/03/26 00:28:24;;;;;;;20.45;16.65;;;;;;;10.02;41.18;100565.28;6337588;22;19999;-89
2022/03/26 00:30:50;;;;;;;23.95;17.23;;;;;;;9.37;41.04;100474.91;6337339;22;20064;-89
2022/03/26 00:33:16;;;;;;;23.65;17.75;;;;;;;9.84;41.22;100552.09;6309574;22;20003;-90
2022/03/26 00:35:42;;;;;;;21.85;17.75;;;;;;;9.88;41.52;100563.16;6309502;22;20436;-89
2022/03/26 00:38:08;;;;;;;24.70;19.67;;;;;;;9.69;41.35;100516.66;6309570;22;19994;-89
2022/03/26 00:40:33;;;;;;;23.30;17.55;;;;;;;9.92;41.04;100596.19;6309706;22;19999;-89
2022/03/26 00:42:59;;;;;;;19.45;15.90;;;;;;;9.95;41.60;100635.47;6337318;22;19999;-89
2022/03/26 00:45:26;;;;;;;58.10;35.08;;;;;;;8.81;41.48;100456.56;6309663;22;20022;-89
2022/03/26 00:47:52;;;;;;;33.30;22.90;;;;;;;9.33;41.28;100549.13;6309600;22;20051;-89
2022/03/26 00:50:17;;;;;;;39.45;28.25;;;;;;;9.56;41.58;100588.16;6337309;22;19995;-90
2022/03/26 00:52:43;;;;;;;44.55;32.60;;;;;;;9.19;41.22;100558.34;6309140;22;19995;-89
2022/03/26 00:55:09;;;;;;;31.42;24.00;;;;;;;9.14;41.44;100563.22;6337317;22;20053;-89
2022/03/26 00:57:36;;;;;;;26.48;20.75;;;;;;;8.94;41.51;100551.91;6309461;22;20329;-89
2022/03/26 01:00:01;;;;;;;22.77;18.17;;;;;;;9.20;41.66;100631.16;6309259;22;20005;-90
2022/03/26 01:02:27;;;;;;;20.70;16.15;;;;;;;8.08;41.48;100482.56;6309135;22;20015;-90
2022/03/26 01:04:53;;;;;;;21.58;15.90;;;;;;;8.77;41.60;100582.41;6336903;22;20351;-90
2022/03/26 01:07:18;;;;;;;19.52;15.02;;;;;;;8.45;41.65;100540.59;6336957;22;19994;-90
2022/03/26 01:09:44;;;;;;;18.13;14.93;;;;;;;8.56;42.23;100576.47;6309210;22;20071;-90
2022/03/26 01:12:10;;;;;;;17.35;13.93;;;;;;;8.39;41.92;100570.13;6309293;22;19991;-90
2022/03/26 01:14:35;;;;;;;18.58;15.60;;;;;;;8.88;41.88;100644.63;6309726;22;20005;-90
2022/03/26 01:17:01;;;;;;;17.98;13.93;;;;;;;8.82;42.38;100651.28;6337309;22;19995;-89
2022/03/26 01:19:26;;;;;;;17.83;13.60;;;;;;;8.71;41.95;100638.25;6336979;22;19987;-90
2022/03/26 01:21:52;;;;;;;17.67;13.68;;;;;;;8.59;42.61;100656.00;6337193;22;20402;-90
2022/03/26 01:24:17;;;;;;;17.77;13.57;;;;;;;7.71;42.63;100510.47;6309414;22;20003;-90
2022/03/26 01:26:43;;;;;;;18.10;14.10;;;;;;;8.11;42.52;100576.97;6309239;22;20440;-89
2022/03/26 01:29:09;;;;;;;17.00;13.90;;;;;;;8.48;43.11;100648.25;6309152;22;20025;-90
2022/03/26 01:31:35;;;;;;;17.15;14.20;;;;;;;8.47;43.16;100649.22;6309095;22;20003;-89
2022/03/26 01:34:01;;;;;;;22.70;14.30;;;;;;;8.37;42.87;100631.75;6309337;22;20037;-90
2022/03/26 01:36:28;;;;;;;20.08;15.43;;;;;;;8.19;43.28;100616.59;6336945;22;20508;-90
2022/03/26 01:38:53;;;;;;;21.50;15.10;;;;;;;7.33;43.16;100470.00;6309366;22;20022;-90
2022/03/26 01:41:20;;;;;;;16.65;13.30;;;;;;;8.11;42.98;100608.53;6337086;22;19998;-90
2022/03/26 01:43:46;;;;;;;18.88;13.80;;;;;;;8.41;43.67;100654.19;6336560;22;19994;-90
2022/03/26 01:46:12;;;;;;;21.15;14.73;;;;;;;8.45;43.64;100650.31;6336762;22;19991;-90
2022/03/26 01:48:38;;;;;;;18.05;14.30;;;;;;;8.42;43.22;100654.06;6309226;22;20002;-90
2022/03/26 01:51:14;;;;;;;19.33;15.10;;;;;;;7.91;42.94;100572.66;6336895;22;20098;-90
2022/03/26 01:53:45;;;;;;;18.42;15.10;;;;;;;8.38;43.30;100671.09;6309321;22;20055;-90
2022/03/26 01:56:12;;;;;;;20.52;14.90;;;;;;;7.96;43.12;100609.88;6336900;22;20094;-90
2022/03/26 01:58:37;;;;;;;16.08;13.02;;;;;;;7.96;43.84;100591.47;6309133;22;20003;-90
2022/03/26 02:01:03;;;;;;;21.15;15.15;;;;;;;8.10;43.39;100625.28;6336846;22;20041;-90
2022/03/26 02:03:29;;;;;;;20.13;15.63;;;;;;;8.02;43.42;100614.59;6309242;22;20002;-91
2022/03/26 02:05:55;;;;;;;20.02;15.35;;;;;;;7.90;43.09;100597.28;6336829;22;20065;-90
2022/03/26 02:08:21;;;;;;;17.38;14.35;;;;;;;7.82;43.38;100597.13;6308945;22;20402;-90
2022/03/26 02:10:46;;;;;;;21.58;15.45;;;;;;;7.97;43.23;100627.31;6336684;22;20070;-91
2022/03/26 02:13:12;;;;;;;21.38;15.18;;;;;;;7.98;43.24;100671.91;6308940;22;19994;-90
2022/03/26 02:15:37;;;;;;;20.85;14.75;;;;;;;7.58;43.41;100600.94;6336426;22;20436;-90
2022/03/26 02:18:03;;;;;;;21.48;15.57;;;;;;;8.03;43.42;100691.72;6308873;22;19995;-90
2022/03/26 02:20:30;;;;;;;20.08;14.20;;;;;;;8.09;43.77;100694.63;6309143;22;20068;-90
2022/03/26 02:22:56;;;;;;;19.55;15.25;;;;;;;7.78;43.78;100711.41;6337775;22;19998;-90
2022/03/26 02:25:22;;;;;;;20.15;15.55;;;;;;;6.29;43.80;100451.81;6311081;22;20007;-90
2022/03/26 02:27:47;;;;;;;20.05;15.30;;;;;;;7.79;44.02;100707.81;6310582;22;20132;-90
2022/03/26 02:30:13;;;;;;;16.17;13.70;;;;;;;7.63;44.03;100692.53;6310870;22;20019;-91
2022/03/26 02:32:39;;;;;;;20.13;14.85;;;;;;;7.31;43.71;100653.19;6285230;22;20102;-91
2022/03/26 02:35:05;;;;;;;18.30;14.18;;;;;;;7.63;43.95;100711.75;6311030;22;20400;-90
2022/03/26 02:37:31;;;;;;;18.42;13.95;;;;;;;7.11;44.13;100633.84;6338401;22;20047;-91
2022/03/26 02:39:57;;;;;;;18.13;13.35;;;;;;;7.30;44.11;100693.56;6338539;22;19999;-90
2022/03/26 02:42:23;;;;;;;19.02;14.25;;;;;;;7.57;44.23;100721.94;6338500;22;19999;-90
2022/03/26 02:44:50;;;;;;;18.98;14.50;;;;;;;7.46;43.62;100706.25;6310924;22;19999;-91
2022/03/26 02:47:15;;;;;;;20.38;13.55;;;;;;;7.30;43.96;100677.78;6338329;22;20056;-90
2022/03/26 02:49:41;;;;;;;18.45;14.60;;;;;;;7.06;44.00;100646.53;6311020;22;20378;-90
2022/03/26 02:52:07;;;;;;;18.85;14.20;;;;;;;7.34;43.81;100695.78;6338271;22;20048;-90
2022/03/26 02:54:33;;;;;;;19.15;13.20;;;;;;;7.54;43.77;100725.66;6310628;22;19999;-90
2022/03/26 02:56:58;;;;;;;19.17;14.73;;;;;;;6.92;44.05;100626.69;6310997;22;20003;-91
2022/03/26 02:59:24;;;;;;;20.13;15.15;;;;;;;6.98;44.31;100655.06;6311048;22;20298;-90
2022/03/26 03:01:53;;;;;;;24.25;14.82;;;;;;;7.05;44.39;100700.00;6311057;22;20053;-90
2022/03/26 03:04:22;;;;;;;21.30;14.90;;;;;;;7.52;44.30;100719.72;6311153;22;20344;-90
2022/03/26 03:06:49;;;;;;;21.90;14.63;;;;;;;7.12;44.37;100660.94;6317693;22;19999;-90
2022/03/26 03:09:15;;;;;;;21.05;14.02;;;;;;;7.54;44.67;100732.72;6338832;22;20002;-89
2022/03/26 03:11:41;;;;;;;17.77;15.68;;;;;;;6.49;44.45;100555.91;6338157;22;20029;-91
2022/03/26 03:14:07;;;;;;;20.05;14.57;;;;;;;7.26;44.70;100707.91;6310976;22;19999;-90
2022/03/26 03:16:33;;;;;;;20.00;14.77;;;;;;;6.89;44.71;100673.38;6338409;22;20080;-90
2022/03/26 03:18:59;;;;;;;19.55;15.27;;;;;;;7.25;44.65;100743.84;6338538;22;20385;-90
2022/03/26 03:21:24;;;;;;;19.42;15.27;;;;;;;6.84;44.47;100689.50;6338132;22;20128;-91
2022/03/26 03:23:50;;;;;;;21.50;15.57;;;;;;;6.78;44.83;100660.28;6310548;22;20063;-91
2022/03/26 03:26:15;;;;;;;23.65;17.35;;;;;;;7.27;44.63;100741.09;6338047;22;19994;-91
2022/03/26 03:28:42;;;;;;;23.40;17.73;;;;;;;6.36;44.94;100592.81;6338109;22;20048;-91
2022/03/26 03:31:08;;;;;;;28.55;19.98;;;;;;;6.83;44.72;100687.81;6310414;22;19998;-91
2022/03/26 03:33:34;;;;;;;27.75;18.17;;;;;;;6.98;44.73;100698.84;6310000;22;20002;-90
2022/03/26 03:35:59;;;;;;;19.90;16.27;;;;;;;7.26;44.46;100748.13;6337560;22;19999;-91
2022/03/26 03:38:25;;;;;;;19.77;16.13;;;;;;;6.72;44.57;100645.06;6310157;22;20321;-90
2022/03/26 03:40:51;;;;;;;19.25;15.70;;;;;;;6.74;44.29;100656.25;6322779;22;19999;-91
2022/03/26 03:43:17;;;;;;;21.45;15.70;;;;;;;6.95;44.38;100699.13;6352244;22;20026;-90
2022/03/26 03:45:43;;;;;;;18.65;15.15;;;;;;;7.13;44.27;100739.59;6315905;22;19987;-89
2022/03/26 03:48:08;;;;;;;20.02;16.23;;;;;;;6.74;44.81;100706.97;6340062;22;19994;-90
2022/03/26 03:50:34;;;;;;;21.40;16.10;;;;;;;6.16;44.93;100614.59;6310807;22;20483;-90
2022/03/26 03:53:00;;;;;;;23.75;17.25;;;;;;;6.31;45.03;100647.44;6337897;22;20355;-91
2022/03/26 03:55:27;;;;;;;20.27;15.73;;;;;;;6.41;45.13;100697.38;6310179;22;20006;-90
2022/03/26 03:57:53;;;;;;;21.08;16.38;;;;;;;6.88;45.11;100759.16;6337896;22;20034;-91
2022/03/26 04:00:18;;;;;;;23.20;16.42;;;;;;;6.73;44.84;100738.56;6310235;22;20028;-91
2022/03/26 04:02:44;;;;;;;22.25;17.10;;;;;;;6.22;44.71;100663.91;6337668;22;20018;-90
2022/03/26 04:05:10;;;;;;;23.73;19.52;;;;;;;6.53;44.87;100713.91;6337788;22;19993;-90
2022/03/26 04:07:37;;;;;;;20.65;16.13;;;;;;;6.79;45.11;100788.78;6310040;22;20089;-89
2022/03/26 04:10:04;;;;;;;24.75;16.08;;;;;;;5.41;44.83;100569.88;6309928;22;20086;-91
2022/03/26 04:12:30;;;;;;;19.75;15.30;;;;;;;6.75;45.09;100782.13;6310457;22;20356;-91
2022/03/26 04:14:55;;;;;;;23.35;17.67;;;;;;;5.57;45.38;100591.28;6337865;22;19999;-90
2022/03/26 04:17:21;;;;;;;25.02;17.42;;;;;;;6.45;45.42;100748.63;6337794;22;19998;-91
2022/03/26 04:19:46;;;;;;;25.20;16.83;;;;;;;6.25;45.19;100705.63;6310134;22;20082;-90
2022/03/26 04:22:12;;;;;;;24.17;16.95;;;;;;;6.14;45.27;100683.84;6310372;22;19999;-90
2022/03/26 04:24:40;;;;;;;26.23;17.67;;;;;;;5.81;45.11;100651.41;6337785;22;20346;-90
2022/03/26 04:27:05;;;;;;;25.80;18.30;;;;;;;6.73;45.50;100810.28;6310342;22;20086;-91
2022/03/26 04:29:31;;;;;;;24.20;16.90;;;;;;;6.31;45.45;100739.22;6310385;22;20034;-90
2022/03/26 04:31:57;;;;;;;22.20;17.98;;;;;;;4.21;45.28;100404.66;6310412;22;20000;-90
2022/03/26 04:34:22;;;;;;;25.35;18.70;;;;;;;5.54;45.07;100609.84;6337677;22;20337;-91
2022/03/26 04:36:48;;;;;;;24.00;18.00;;;;;;;6.30;45.31;100747.22;6337924;22;19990;-90
2022/03/26 04:39:13;;;;;;;32.75;19.88;;;;;;;6.13;45.43;100732.81;6310115;22;19995;-91
2022/03/26 04:41:39;;;;;;;26.00;18.90;;;;;;;5.78;45.23;100650.81;6310244;22;20001;-91
2022/03/26 04:44:05;;;;;;;24.02;18.92;;;;;;;5.90;45.51;100676.91;6310317;22;20070;-90
2022/03/26 04:46:30;;;;;;;28.27;19.63;;;;;;;6.65;45.60;100789.84;6337337;22;20428;-90
2022/03/26 04:48:56;;;;;;;29.02;21.98;;;;;;;6.13;45.37;100706.59;6337632;22;19995;-91
2022/03/26 04:51:21;;;;;;;31.02;20.90;;;;;;;5.47;45.35;100634.03;6310087;22;19999;-91
2022/03/26 04:53:47;;;;;;;32.50;22.67;;;;;;;6.11;45.43;100702.44;6337545;22;19998;-91
2022/03/26 04:56:12;;;;;;;32.00;21.55;;;;;;;5.86;45.86;100708.69;6309850;22;19999;-91
2022/03/26 04:58:38;;;;;;;29.27;20.83;;;;;;;6.62;45.64;100797.97;6337322;22;20343;-91
2022/03/26 05:01:04;;;;;;;38.40;23.10;;;;;;;6.61;45.55;100806.81;6309331;22;20021;-91
2022/03/26 05:03:29;;;;;;;33.80;24.63;;;;;;;6.62;45.66;100784.84;6309842;22;20414;-90
2022/03/26 05:05:55;;;;;;;27.83;20.73;;;;;;;6.46;45.11;100739.81;6309927;22;19991;-91
2022/03/26 05:08:20;;;;;;;25.17;20.38;;;;;;;5.37;45.39;100576.28;6309727;22;19990;-90
2022/03/26 05:10:46;;;;;;;23.55;19.42;;;;;;;5.89;45.37;100695.34;6337462;22;20070;-91
2022/03/26 05:13:11;;;;;;;27.25;20.17;;;;;;;6.86;45.17;100815.38;6309764;22;19998;-90
2022/03/26 05:15:37;;;;;;;27.90;22.50;;;;;;;5.89;45.00;100677.00;6309362;22;20078;-91
2022/03/26 05:18:03;;;;;;;36.90;27.60;;;;;;;4.81;45.37;100494.28;6309727;22;20030;-91
2022/03/26 05:20:29;;;;;;;37.83;28.67;;;;;;;6.88;45.36;100816.91;6309681;22;20026;-90
2022/03/26 05:22:55;;;;;;;37.87;27.57;;;;;;;6.50;45.17;100756.13;6309622;22;20037;-91
2022/03/26 05:25:21;;;;;;;43.28;30.90;;;;;;;6.79;44.82;100793.19;6309666;22;19994;-90
2022/03/26 05:27:47;;;;;;;48.85;35.42;;;;;;;6.89;44.90;100817.75;6309202;22;20017;-90
2022/03/26 05:30:14;;;;;;;62.72;41.72;;;;;;;6.97;44.90;100820.59;6309554;22;20003;-91
2022/03/26 05:32:40;;;;;;;71.70;47.42;;;;;;;7.05;45.03;100822.59;6309299;22;20003;-91
2022/03/26 05:35:11;;;;;;;52.55;38.80;;;;;;;6.61;45.16;100766.59;6336605;22;20009;-90
2022/03/26 05:37:38;;;;;;;46.42;33.30;;;;;;;6.41;45.29;100765.56;6337035;22;20006;-90
2022/03/26 05:40:05;;;;;;;50.28;35.33;;;;;;;6.91;44.85;100827.19;6309709;22;20026;-91
2022/03/26 05:42:30;;;;;;;42.17;29.80;;;;;;;6.46;44.98;100792.28;6337249;22;20456;-91
2022/03/26 05:44:57;;;;;;;37.13;28.30;;;;;;;7.00;44.93;100829.06;6309243;22;19994;-90
2022/03/26 05:47:24;;;;;;;42.78;28.10;;;;;;;6.84;45.50;100783.16;6309500;22;20336;-91
2022/03/26 05:49:49;;;;;;;41.15;27.30;;;;;;;6.76;44.75;100757.53;6309342;22;20359;-89
2022/03/26 05:52:16;;;;;;;44.25;28.88;;;;;;;6.55;44.61;100683.97;6309378;22;19999;-91
2022/03/26 05:54:42;;;;;;;45.65;30.17;;;;;;;7.54;44.54;100848.34;6336902;22;20002;-90
2022/03/26 05:57:07;;;;;;;42.72;29.60;;;;;;;7.23;44.72;100772.03;6337995;22;20398;-90
2022/03/26 05:59:33;;;;;;;40.45;28.05;;;;;;;7.70;44.42;100832.97;6311454;22;20003;-90
2022/03/26 06:01:59;;;;;;;41.92;29.10;;;;;;;7.36;44.55;100790.25;6339094;22;20478;-90
2022/03/26 06:04:24;;;;;;;41.08;28.73;;;;;;;7.12;44.10;100714.31;6339241;22;20074;-90
2022/03/26 06:06:50;;;;;;;35.97;28.38;;;;;;;7.79;44.64;100803.28;6339366;22;20467;-90
2022/03/26 06:09:16;;;;;;;40.67;29.30;;;;;;;7.71;44.60;100786.50;6311464;22;19995;-90
2022/03/26 06:11:42;;;;;;;47.10;33.45;;;;;;;7.56;44.59;100752.66;6338739;22;19999;-90
2022/03/26 06:14:07;;;;;;;42.42;30.02;;;;;;;6.59;44.71;100576.97;6338749;22;19998;-90
2022/03/26 06:16:34;;;;;;;44.70;31.65;;;;;;;7.82;45.16;100823.22;6310886;22;20011;-90
2022/03/26 06:19:01;;;;;;;44.60;30.75;;;;;;;8.16;45.19;100835.19;6311178;22;20006;-90
2022/03/26 06:21:30;;;;;;;27.10;19.35;;;;;;;8.12;45.97;100790.84;6338643;22;20065;-90
2022/03/26 06:23:58;;;;;;;25.45;17.17;;;;;;;7.79;46.16;100742.81;6338433;22;20069;-90
2022/03/26 06:26:26;;;;;;;23.27;17.40;;;;;;;8.44;46.45;100846.03;6310813;22;19999;-90
2022/03/26 06:28:52;;;;;;;31.38;20.58;;;;;;;8.65;46.67;100846.81;6310804;22;20451;-90
2022/03/26 06:31:18;;;;;;;29.33;21.75;;;;;;;7.83;46.08;100681.13;6338352;22;19995;-90
2022/03/26 06:33:44;;;;;;;30.92;22.25;;;;;;;8.63;46.04;100805.78;6310862;22;20129;-90
2022/03/26 06:36:10;;;;;;;36.45;21.15;;;;;;;8.45;45.99;100760.84;6310727;22;20038;-90
2022/03/26 06:38:38;;;;;;;29.40;21.92;;;;;;;8.87;45.66;100804.44;6311041;22;20002;-90
2022/03/26 06:41:12;;;;;;;31.98;22.40;;;;;;;8.67;45.54;100759.78;6338493;22;19994;-90
2022/03/26 06:43:39;;;;;;;29.60;21.42;;;;;;;8.88;45.23;100813.19;6310632;22;20009;-89
2022/03/26 06:46:05;;;;;;;29.23;23.05;;;;;;;8.65;45.55;100733.59;6310682;22;19998;-89
2022/03/26 06:48:32;;;;;;;27.80;21.50;;;;;;;9.57;45.69;100860.56;6338053;22;19994;-90
2022/03/26 06:51:01;;;;;;;28.42;21.25;;;;;;;9.60;45.49;100862.06;6338219;22;20444;-89
2022/03/26 06:53:28;;;;;;;36.72;23.75;;;;;;;9.64;45.51;100869.56;6310564;22;19999;-90
2022/03/26 06:55:54;;;;;;;31.10;23.63;;;;;;;8.87;45.33;100735.13;6338095;22;19998;-89
2022/03/26 06:58:19;;;;;;;30.40;24.25;;;;;;;9.28;45.10;100765.66;6337755;22;19995;-90
2022/03/26 07:00:45;;;;;;;34.10;25.58;;;;;;;9.45;44.92;100790.50;6309947;22;20003;-89
2022/03/26 07:03:11;;;;;;;31.75;24.40;;;;;;;10.03;45.25;100878.28;6338144;22;20383;-90
2022/03/26 07:05:37;;;;;;;26.95;23.65;;;;;;;9.37;44.81;100762.19;6338106;22;19998;-90
2022/03/26 07:08:04;;;;;;;28.88;21.67;;;;;;;9.71;44.50;100801.31;6309906;22;20003;-90
2022/03/26 07:10:30;;;;;;;28.00;23.02;;;;;;;9.57;44.48;100763.81;6338813;22;19995;-89
2022/03/26 07:12:55;;;;;;;33.70;22.90;;;;;;;9.97;44.68;100836.66;6338959;22;20005;-89
2022/03/26 07:15:21;;;;;;;23.75;19.75;;;;;;;10.17;43.98;100838.25;6311130;22;20009;-90
2022/03/26 07:17:47;;;;;;;26.95;19.52;;;;;;;9.74;43.83;100761.47;6312879;22;19995;-89
2022/03/26 07:20:14;;;;;;;24.77;17.67;;;;;;;9.88;43.08;100775.03;6311478;22;20466;-89
2022/03/26 07:22:41;;;;;;;24.45;16.67;;;;;;;10.13;42.88;100799.94;6341831;22;19991;-89
2022/03/26 07:25:09;;;;;;;20.70;17.70;;;;;;;10.43;42.95;100842.94;6340940;22;19997;-89
2022/03/26 07:27:36;;;;;;;21.23;17.58;;;;;;;10.81;42.42;100874.47;6350289;22;20021;-89
2022/03/26 07:30:04;;;;;;;20.95;15.85;;;;;;;10.54;41.99;100818.16;6322712;22;20024;-89
2022/03/26 07:32:30;;;;;;;20.20;17.45;;;;;;;10.52;41.58;100804.28;6315121;22;20428;-89
2022/03/26 07:34:56;;;;;;;20.20;15.55;;;;;;;10.74;41.68;100810.00;6311639;22;20056;-89
2022/03/26 07:37:22;;;;;;;21.75;16.83;;;;;;;10.56;41.11;100764.22;6313189;22;20006;-89
2022/03/26 07:39:48;;;;;;;22.33;17.38;;;;;;;11.22;41.25;100868.81;6310911;22;20006;-89
2022/03/26 07:42:14;;;;;;;24.70;18.48;;;;;;;11.27;40.80;100863.91;6310437;22;20002;-89
2022/03/26 07:44:39;;;;;;;27.98;17.38;;;;;;;11.05;40.79;100833.44;6310047;22;20078;-89
2022/03/26 07:47:05;;;;;;;21.45;17.70;;;;;;;11.30;40.76;100845.94;6310114;22;20060;-89
2022/03/26 07:49:32;;;;;;;19.73;15.20;;;;;;;11.19;39.81;100816.25;6310393;22;20003;-89
2022/03/26 07:51:58;;;;;;;18.15;15.30;;;;;;;10.96;39.77;100776.19;6310366;22;20026;-89
2022/03/26 07:54:24;;;;;;;19.13;14.82;;;;;;;11.29;39.21;100807.25;6338241;22;20368;-88
2022/03/26 07:56:50;;;;;;;18.50;14.98;;;;;;;11.64;38.63;100846.06;6310807;22;20444;-88
2022/03/26 07:59:15;;;;;;;21.95;15.82;;;;;;;11.55;38.82;100835.59;6355715;22;20054;-86
2022/03/26 08:01:41;;;;;;;18.27;14.93;;;;;;;11.56;38.70;100808.16;6356890;22;20021;-85
2022/03/26 08:04:07;;;;;;;22.50;16.08;;;;;;;11.93;38.08;100853.81;6313733;22;20086;-88
2022/03/26 08:06:33;;;;;;;20.25;17.67;;;;;;;11.93;37.71;100839.75;6337865;22;19990;-88
2022/03/26 08:08:59;;;;;;;18.63;15.13;;;;;;;11.46;37.71;100761.47;6337988;22;19999;-89
2022/03/26 08:11:24;;;;;;;19.80;16.05;;;;;;;11.33;37.24;100742.53;6338060;22;20065;-89
2022/03/26 08:13:50;;;;;;;19.55;14.50;;;;;;;11.29;36.88;100757.03;6309835;22;20070;-89
2022/03/26 08:16:16;;;;;;;19.02;15.07;;;;;;;12.01;36.87;100868.91;6309788;22;20003;-89
2022/03/26 08:18:44;;;;;;;17.92;14.73;;;;;;;11.72;36.59;100782.63;6309806;22;20002;-88
2022/03/26 08:21:10;;;;;;;20.50;16.05;;;;;;;11.27;36.37;100714.06;6337304;22;20403;-88
2022/03/26 08:23:36;;;;;;;17.13;13.95;;;;;;;11.86;36.26;100788.38;6337466;22;20508;-88
2022/03/26 08:28:47;;;;;;;17.95;14.70;;;;;;;12.45;34.95;100851.13;6337514;22;20008;-88
2022/03/26 08:31:13;;;;;;;17.70;12.50;;;;;;;12.25;35.34;100802.84;6337608;22;19998;-88
2022/03/26 08:33:42;;;;;;;21.23;15.90;;;;;;;12.65;35.03;100847.28;6337787;22;20002;-89
2022/03/26 08:36:07;;;;;;;18.90;13.88;;;;;;;12.34;35.54;100775.44;6337457;22;19999;-88
2022/03/26 08:38:34;;;;;;;19.23;14.73;;;;;;;12.43;35.21;100751.63;6337446;22;20003;-89
2022/03/26 08:41:00;;;;;;;17.65;14.13;;;;;;;12.61;34.65;100752.34;6309962;22;19999;-87
2022/03/26 08:43:26;;;;;;;17.65;14.15;;;;;;;13.41;34.42;100854.31;6309792;22;20002;-88
2022/03/26 08:45:52;;;;;;;16.60;13.77;;;;;;;13.13;33.97;100775.97;6337132;22;20006;-88
2022/03/26 08:48:17;;;;;;;14.80;13.25;;;;;;;12.94;33.86;100743.47;6337579;22;19995;-88
2022/03/26 08:50:43;;;;;;;17.55;14.32;;;;;;;13.40;33.42;100780.19;6337730;22;20450;-89
2022/03/26 08:53:10;;;;;;;20.23;15.75;;;;;;;13.75;33.51;100809.03;6337651;22;20004;-87
2022/03/26 08:55:36;;;;;;;20.90;14.75;;;;;;;13.65;33.04;100774.72;6337065;22;20007;-87
2022/03/26 08:58:02;;;;;;;20.40;15.60;;;;;;;13.95;33.04;100806.84;6337287;22;19998;-87
2022/03/26 09:00:28;;;;;;;18.70;14.35;;;;;;;13.66;32.80;100735.72;6309307;22;20352;-88
2022/03/26 09:02:54;;;;;;;19.20;13.27;;;;;;;14.26;32.32;100814.94;6337109;22;20022;-87
2022/03/26 09:05:20;;;;;;;15.75;13.57;;;;;;;14.43;32.31;100791.81;6336899;22;20436;-87
2022/03/26 09:07:45;;;;;;;19.05;13.45;;;;;;;14.79;31.79;100826.69;6309176;22;20034;-87
2022/03/26 09:10:11;;;;;;;21.38;14.07;;;;;;;14.58;31.71;100758.19;6336647;22;20021;-87
2022/03/26 09:12:37;;;;;;;17.08;13.40;;;;;;;14.58;31.73;100768.81;6336612;22;19999;-86
2022/03/26 09:15:06;;;;;;;17.00;13.15;;;;;;;14.60;31.85;100764.16;6309342;22;20003;-86
2022/03/26 09:17:32;;;;;;;16.88;13.50;;;;;;;14.51;31.66;100754.56;6309133;22;20476;-87
2022/03/26 09:19:58;;;;;;;16.30;13.23;;;;;;;14.74;31.55;100751.94;6336762;22;20329;-87
2022/03/26 09:22:23;;;;;;;16.42;13.18;;;;;;;15.20;31.23;100804.19;6336818;22;20002;-86
2022/03/26 09:24:49;;;;;;;16.88;12.65;;;;;;;14.92;31.24;100737.41;6336675;22;20002;-87
2022/03/26 09:27:14;;;;;;;18.63;13.25;;;;;;;15.13;31.03;100744.72;6309403;22;19990;-87
2022/03/26 09:29:40;;;;;;;16.05;12.57;;;;;;;15.26;30.71;100739.63;6336710;22;20022;-87
2022/03/26 09:32:06;;;;;;;18.27;12.82;;;;;;;15.53;30.72;100756.03;6308863;22;20052;-87
2022/03/26 09:34:31;;;;;;;14.40;11.05;;;;;;;15.21;30.32;100678.16;6308918;22;20421;-87
2022/03/26 09:36:57;;;;;;;15.32;11.60;;;;;;;16.00;30.03;100736.28;6336490;22;20056;-87
2022/03/26 09:39:22;;;;;;;15.00;11.68;;;;;;;16.24;29.58;100735.19;6336922;22;19999;-86
2022/03/26 09:41:50;;;;;;;14.07;11.35;;;;;;;16.84;29.53;100793.59;6337102;22;20070;-87
2022/03/26 09:44:16;;;;;;;14.07;11.85;;;;;;;17.05;29.30;100790.94;6336927;22;20006;-86
2022/03/26 09:46:42;;;;;;;15.38;12.35;;;;;;;16.97;28.72;100753.72;6309007;22;20085;-86
2022/03/26 09:49:09;;;;;;;13.57;11.40;;;;;;;16.98;28.43;100728.69;6336926;22;20424;-86
2022/03/26 09:51:35;;;;;;;15.25;11.50;;;;;;;17.09;28.31;100765.56;6336784;22;20056;-86
2022/03/26 09:54:01;;;;;;;13.23;11.32;;;;;;;17.38;27.91;100780.59;6335204;22;20089;-86
2022/03/26 09:56:30;;;;;;;13.02;10.88;;;;;;;17.35;28.04;100764.97;6336805;22;20030;-86
2022/03/26 09:58:58;;;;;;;14.48;11.50;;;;;;;17.38;27.71;100731.72;6309166;22;20454;-87
2022/03/26 10:01:25;;;;;;;14.55;11.02;;;;;;;17.45;27.59;100714.72;6308729;22;20481;-87
2022/03/26 10:04:10;;;;;;;12.85;10.60;;;;;;;17.95;27.13;100760.13;6336904;22;20574;-87
2022/03/26 10:06:37;;;;;;;14.75;11.82;;;;;;;17.34;27.13;100648.53;6309230;22;20450;-87
2022/03/26 10:09:03;;;;;;;14.38;11.70;;;;;;;18.10;27.10;100750.13;6337223;22;20459;-86
2022/03/26 10:11:33;;;;;;;13.98;11.27;;;;;;;18.30;26.58;100751.06;6310062;22;19995;-86
2022/03/26 10:13:59;;;;;;;13.13;10.90;;;;;;;18.55;26.33;100751.34;6337422;22;20026;-87
2022/03/26 10:16:25;;;;;;;15.05;12.30;;;;;;;18.67;26.15;100741.78;6309672;22;20064;-86
2022/03/26 10:18:51;;;;;;;11.73;10.07;;;;;;;18.58;25.54;100696.63;6309889;22;19999;-87
2022/03/26 10:21:21;;;;;;;13.73;10.00;;;;;;;18.59;25.50;100663.53;6310062;22;20559;-87
2022/03/26 10:23:49;;;;;;;11.63;9.35;;;;;;;18.87;25.24;100699.00;6337058;22;20016;-87
2022/03/26 10:26:22;;;;;;;13.25;10.60;;;;;;;19.03;24.79;100733.41;6308828;22;20022;-87
2022/03/26 10:28:56;;;;;;;12.68;10.32;;;;;;;18.81;24.78;100691.81;6336458;22;20478;-87
2022/03/26 10:34:21;;;;;;;14.60;12.27;;;;;;;18.38;24.49;100554.88;6336265;22;20010;-87
2022/03/26 10:36:58;;;;;;;14.45;11.55;;;;;;;19.72;24.29;100723.34;6336175;22;20503;-87
2022/03/26 10:39:25;;;;;;;14.43;11.50;;;;;;;19.08;24.20;100598.97;6308833;22;20005;-87
2022/03/26 10:41:54;;;;;;;12.55;9.70;;;;;;;19.51;23.65;100631.47;6308954;22;20018;-87
2022/03/26 10:44:29;;;;;;;13.73;11.25;;;;;;;19.76;23.38;100615.53;6338608;22;20006;-86
2022/03/26 10:47:00;;;;;;;12.65;10.00;;;;;;;20.34;22.56;100706.69;6311041;22;19998;-87
2022/03/26 10:49:26;;;;;;;15.30;10.25;;;;;;;20.41;22.79;100704.00;6310767;22;20007;-86
2022/03/26 10:51:53;;;;;;;13.38;11.23;;;;;;;19.98;22.74;100618.75;6310773;22;20009;-86
2022/03/26 10:54:19;;;;;;;11.88;10.15;;;;;;;20.60;22.51;100698.53;6338250;22;20002;-87
2022/03/26 10:56:45;;;;;;;10.82;9.05;;;;;;;20.28;22.33;100665.44;6337763;22;20448;-86
2022/03/26 10:59:10;;;;;;;11.55;9.80;;;;;;;20.16;22.31;100626.13;6310335;22;20478;-86
2022/03/26 11:01:36;;;;;;;14.38;11.30;;;;;;;20.19;22.22;100606.91;6337826;22;20010;-86
2022/03/26 11:04:03;;;;;;;11.00;9.18;;;;;;;20.86;21.90;100689.50;6310246;22;20003;-85
2022/03/26 11:06:29;;;;;;;12.85;9.30;;;;;;;20.80;21.40;100662.69;6310430;22;19994;-85
2022/03/26 11:08:59;;;;;;;10.38;8.50;;;;;;;20.98;20.57;100660.09;6338211;22;20026;-85
2022/03/26 11:11:27;;;;;;;9.77;8.85;;;;;;;21.01;20.11;100681.13;6338566;22;20013;-85
2022/03/26 11:13:58;;;;;;;11.85;8.13;;;;;;;20.69;19.69;100613.22;6311001;22;20418;-85
2022/03/26 11:16:49;;;;;;;10.93;8.63;;;;;;;20.75;19.46;100635.66;6338576;22;20479;-86